Wolf Creek Observed Data For Previous 48 Hours

Caption
Day and Hour Reservoir Elevation (behind dam)* Tailwater Elevation (below dam)* Average Hourly Discharge*
5/22/2016 1 AM CDT 723.59 550.79 20
5/22/2016 2 AM CDT 723.59 548.59 20
5/22/2016 3 AM CDT 723.60 547.30 20
5/22/2016 4 AM CDT 723.60 546.80 20
5/22/2016 5 AM CDT 723.61 546.31 20
5/22/2016 6 AM CDT 723.61 548.91 6,860
5/22/2016 7 AM CDT 723.62 552.72 13,860
5/22/2016 8 AM CDT 723.63 556.43 21,020
5/22/2016 9 AM CDT 723.64 557.44 21,080
5/22/2016 10 AM CDT 723.65 558.15 21,080
5/22/2016 11 AM CDT 723.66 558.56 21,200
5/22/2016 12 PM CDT 723.67 558.87 21,200
5/22/2016 1 PM CDT 723.66 559.06 21,200
5/22/2016 2 PM CDT 723.65 559.15 21,200
5/22/2016 3 PM CDT 723.64 559.24 21,260
5/22/2016 4 PM CDT 723.63 559.33 21,260
5/22/2016 5 PM CDT 723.62 559.42 21,260
5/22/2016 6 PM CDT 723.61 559.41 21,260
5/22/2016 7 PM CDT 723.61 559.61 21,260
5/22/2016 8 PM CDT 723.59 559.59 21,260
5/22/2016 9 PM CDT 723.58 559.58 21,260
5/22/2016 10 PM CDT 723.58 559.68 21,260
5/22/2016 11 PM CDT 723.58 557.78 14,060
5/23/2016 12 AM CDT 723.55 554.75 6,980
5/23/2016 1 AM CDT 723.55 551.85 20
5/23/2016 2 AM CDT 723.55 550.25 20
5/23/2016 3 AM CDT 723.55 548.85 20
5/23/2016 4 AM CDT 723.55 547.55 20
5/23/2016 5 AM CDT 723.55 546.05 20
5/23/2016 6 AM CDT 723.55 548.85 6,860
5/23/2016 7 AM CDT 723.55 552.85 13,860
5/23/2016 8 AM CDT 723.55 556.45 21,020
5/23/2016 9 AM CDT 723.55 557.55 21,080
5/23/2016 10 AM CDT 723.55 558.25 21,200
5/23/2016 11 AM CDT 723.55 558.65 21,200
5/23/2016 12 PM CDT 723.55 559.05 21,200
5/23/2016 1 PM CDT 723.54 559.14 21,260
5/23/2016 2 PM CDT 723.53 559.13 21,260
5/23/2016 3 PM CDT 723.52 559.22 21,260
5/23/2016 4 PM CDT 723.51 559.31 21,260
5/23/2016 5 PM CDT 723.50 559.40 21,260
5/23/2016 6 PM CDT 723.49 559.49 21,260
5/23/2016 7 PM CDT 723.47 559.49 21,260
5/23/2016 8 PM CDT 723.43 559.53 21,260
5/23/2016 9 PM CDT 723.40 559.40 21,260
5/23/2016 10 PM CDT 723.38 559.38 21,260
5/23/2016 11 PM CDT 723.36 557.66 14,060
5/24/2016 12 AM CDT 723.36 555.06 7,000
5/24/2016 1 AM CDT 723.36 553.66 6,960
5/24/2016 2 AM CDT 723.34 553.04 6,960
5/24/2016 3 AM CDT 723.32 552.52 6,940
5/24/2016 4 AM CDT 723.31 551.91 6,940
5/24/2016 5 AM CDT 723.30 551.40 6,920
5/24/2016 6 AM CDT 723.29 550.89 6,920
5/24/2016 7 AM CDT 723.28 550.88 6,920
5/24/2016 8 AM CDT 723.28 550.88 6,920
5/24/2016 9 AM CDT 723.28 552.88 13,900
5/24/2016 10 AM CDT 723.28 553.28 13,900
5/24/2016 11 AM CDT 723.28 556.48 21,020
5/24/2016 12 PM CDT 723.28 557.58 21,080
5/24/2016 1 PM CDT 723.25 558.05 21,200
5/24/2016 2 PM CDT 723.25 558.65 21,200
5/24/2016 3 PM CDT 723.25 559.05 21,260
5/24/2016 4 PM CDT 723.28 556.48 21,020
5/24/2016 5 PM CDT 723.28 557.58 21,080
5/24/2016 6 PM CDT 723.20 559.10 21,260

Elevations are in feet above sea level. Discharges are in cubic feet per second and are reported at the end of the hour.